Hermitage, TN

2:18 PM CST on December 08, 2016 (GMT -0600)
Hermitage | | Change Station

Elev 528 ft 36.18 °N, 86.63 °W | Updated 3 seconds ago

Clear
Clear
37.4 °F
Feels Like 33 °F
N
5.1
Wind Variable Wind from SSW
Gusts 7.4 mph

Today
High -- | Low -- °F
--% Chance of Precip.
Yesterday
High -- | Low -- °F
Precip. -- in
Pressure 30.41 in
Visibility 10.0 miles
Clouds Mostly Cloudy 25000 ft
Windchill 33 °F
Dew Point 7 °F
Humidity 28%
Rainfall 0.00 in
Snow Depth Not available.
6:45 AM 4:31 PM
Waxing Gibbous, 66% visible
METAR KBNA 081953Z 32014KT 10SM BKN250 04/M12 A3040 RMK AO2 SLP298 T00391117
Pressure 30.41 in
Visibility 10.0 miles
Clouds Mostly Cloudy 25000 ft
Windchill 33 °F
Dew Point 7 °F
Humidity 28%
Rainfall 0.00 in
Snow Depth Not available.
6:45 AM 4:31 PM
Waxing Gibbous, 66% visible
METAR KBNA 081953Z 32014KT 10SM BKN250 04/M12 A3040 RMK AO2 SLP298 T00391117

10-Day Weather Forecast

Almanac

Astronomy

Dec. 08, 2016 Rise Set
Actual Time
Civil Twilight
Nautical Twilight
Astronomical Twilight
Moon
Length of Visible Light
Length of Day
Tomorrow will be .
, % of the Moon is Illuminated

Today's Extremes

State Highs State Lows

Community

WunderPhotos

Upload Photos

1,956,277 photos uploaded!

WunderBlog® & News

Nearby

Air Quality

  Air Quality AQ Index Pollutant
Not available.

Snow Depth

Station Depth Elevation

Earthquake Activity

City Distance Mag. Time & Date
Minimum magnitude displayed is 2.5.

Coastal Water Temperatures

Place Temperature

Stations

Nearby Weather Stations

Station Location Temp. Windchill Dew Point Humidity Wind Precip. Elev Updated Type
                   

Watches & Warnings

There are currently no watches in effect.